Aeroporto :
LOGIN :

Iscrizione | Disclaimer

   EN    FR    IT 

 










Sommario :    VFR   VFR Marginale   IFR   IFR Intensivo   IFR Molto Intensivo
Visibilità : 
Base nubi : 
>= 8 km
>= 3000ft
5 / 8 km
1000 / 3000 ft
1500m / 5 km
500 / 1000 ft
800 / 1500m
200 / 500 ft
< 800m
< 200 ft
Simboli :   Temporali  Nebbia  Neve Forte  Precipitazioni Forti  Vento > 20 kt
SIGMETs :   Varie  Temporali  Ghiacco  Turbolenza  Onda orograficha  Ceneri Vulcaniche






- Altitudine del aeroporto : 876 ft
- Codice IATA : MBX


LJMB - Maribor

ULTIMO METAR :
  • 032330Z AUTO VRB01KT 9999 NCD 14/13 Q1019

METARs OBSOLETI :
  • 032300Z AUTO VRB01KT 9999 NCD 15/14 Q1019
  • 032230Z AUTO 32002KT 9999 NCD 14/13 Q1019
  • 032200Z AUTO 00000KT 9999 NCD 15/14 Q1019
  • 032130Z AUTO VRB01KT 9999 NCD 16/14 Q1019
  • 032100Z AUTO 36003KT 9999 NSC 16/14 Q1018

TAF TAF LJMB
Valido dal 04 a 00 ore il 05 a 00 ore UTC


032300Z 0400/0424 36005KT CAVOK



MetMap, La meteo Aeronautica in un colpo d'occhio ! - Copyright ORBIFLY Dicembre 2007 - Disclaimer

ORBIFLY MET'MAP TEAM :

Programmazione e sviluppo : Alexandra Zaïnal
Concezione : Baudouin d'Aumeries
Aiuto per la programmazione : Marc-Olivier Méhu
Supporto tecnico e logistico : Manuel Goepfert
Aiuto per la traduzione : Arnaldo La Scala

Contatto : metmap@orbifly.com




FONTI E CREDITI :

   NOAA